createdAt,value
2022-10-09T00:00:33.256Z,8.40
2022-10-09T00:15:23.099Z,8.18
2022-10-09T00:30:23.042Z,8.05
2022-10-09T00:45:23.950Z,7.75
2022-10-09T01:00:23.598Z,7.77
2022-10-09T01:15:23.927Z,7.62
2022-10-09T01:30:24.212Z,7.83
2022-10-09T01:45:23.298Z,7.83
2022-10-09T02:00:23.884Z,7.57
2022-10-09T02:15:23.871Z,7.38
2022-10-09T02:30:23.796Z,7.23
2022-10-09T02:45:23.790Z,7.28
2022-10-09T03:00:28.001Z,7.25
2022-10-09T03:15:23.953Z,7.40
2022-10-09T03:30:24.137Z,7.25
2022-10-09T03:45:23.777Z,7.35
2022-10-09T04:00:29.756Z,7.67
2022-10-09T04:15:24.026Z,7.43
2022-10-09T04:30:24.010Z,7.62
2022-10-09T04:45:33.253Z,7.32
2022-10-09T05:00:33.250Z,7.45
2022-10-09T05:15:23.225Z,6.97
2022-10-09T05:30:23.231Z,7.13
2022-10-09T05:45:23.425Z,6.77
2022-10-09T06:00:25.589Z,6.57
2022-10-09T06:15:23.672Z,6.53
2022-10-09T06:30:24.663Z,6.43
2022-10-09T06:45:24.296Z,6.60
2022-10-09T07:00:28.917Z,6.57
2022-10-09T07:15:23.745Z,6.85
2022-10-09T07:30:23.751Z,7.18
2022-10-09T07:45:23.989Z,7.57
2022-10-09T08:00:23.898Z,7.60
2022-10-09T08:15:24.062Z,8.00
2022-10-09T08:30:24.126Z,8.50
2022-10-09T08:45:23.846Z,9.30
2022-10-09T09:00:24.316Z,9.85
2022-10-09T09:15:24.020Z,10.45
2022-10-09T09:30:24.439Z,11.10
2022-10-09T09:45:33.153Z,11.80
2022-10-09T10:00:35.689Z,12.33
2022-10-09T10:15:23.434Z,12.75
2022-10-09T10:30:25.368Z,13.32
2022-10-09T10:45:23.929Z,13.80
2022-10-09T11:00:33.685Z,13.93
2022-10-09T11:15:23.648Z,14.35
2022-10-09T11:30:23.782Z,14.58
2022-10-09T11:45:23.696Z,14.70
2022-10-09T12:00:23.701Z,15.18
2022-10-09T12:15:23.759Z,15.38
2022-10-09T12:30:23.980Z,15.57
2022-10-09T12:45:23.815Z,15.63
2022-10-09T13:00:23.864Z,15.93
2022-10-09T13:15:23.929Z,15.95
2022-10-09T13:30:24.052Z,16.05
2022-10-09T13:45:23.932Z,16.30
2022-10-09T14:00:31.036Z,16.33
2022-10-09T14:15:24.141Z,16.47
2022-10-09T14:30:26.430Z,16.52
2022-10-09T14:45:33.428Z,16.57
2022-10-09T15:00:33.705Z,16.42
2022-10-09T15:15:23.080Z,16.43
2022-10-09T15:30:23.135Z,16.33
2022-10-09T15:45:23.064Z,16.40
2022-10-09T16:00:30.472Z,15.70
2022-10-09T16:15:23.939Z,15.82
2022-10-09T16:30:23.850Z,15.57
2022-10-09T16:45:23.449Z,15.12
2022-10-09T17:00:23.492Z,14.93
2022-10-09T17:15:23.463Z,14.50
2022-10-09T17:30:24.327Z,14.25
2022-10-09T17:45:24.078Z,14.27
2022-10-09T18:00:34.215Z,13.90
2022-10-09T18:15:24.256Z,13.75
2022-10-09T18:30:23.784Z,13.75
2022-10-09T18:45:23.792Z,13.55
2022-10-09T19:00:30.251Z,13.55
2022-10-09T19:15:23.998Z,13.52
2022-10-09T19:30:23.866Z,14.00
2022-10-09T19:45:23.937Z,13.85
2022-10-09T20:00:38.343Z,13.90
2022-10-09T20:15:23.992Z,13.80
2022-10-09T20:30:28.144Z,13.90
2022-10-09T20:45:32.883Z,13.85
2022-10-09T21:00:33.043Z,13.95
2022-10-09T21:15:23.335Z,13.98
2022-10-09T21:30:23.929Z,13.82
2022-10-09T21:45:23.460Z,13.87
2022-10-09T22:00:40.477Z,14.00
2022-10-09T22:15:23.139Z,13.90
2022-10-09T22:30:23.304Z,13.62
2022-10-09T22:45:23.525Z,13.25
2022-10-09T23:00:29.235Z,13.10
2022-10-09T23:15:23.447Z,12.75
2022-10-09T23:30:24.349Z,12.58
2022-10-09T23:45:23.603Z,12.38
